Streetsboro, Ohio
Current Conditions -  °F | °C
As of 4:00 PM on Thursday 18 Dec 2014 (Local Time) from KPOV Reporting Station
NA  
Wind Chill: 24°   Ceiling: NA
Heat Index: 29°   Visibility: 10mi
Dew Point: 21°   Wind: 5mph
Humidity: 73%   Direction: 250°WSW
Pressure: 30.15"   Gusts: NA
Location:  41.24°N, 81.34°W
Report Text: KPOV 182100Z AUTO 25004KT 10SM M02/M06 A3015 RMK AO2 T10161059
Loading
Personal Weather Stations






























Interactive Weather Map New forecast layout! Learn more

10-Day Weather Forecast

Advertisements
Track Severe Weather on mobile